createdAt,value
2018-09-27T00:51:07.772Z,85.74
2018-09-27T00:52:07.812Z,85.94
2018-09-27T00:54:46.505Z,85.36
2018-09-27T01:16:27.168Z,85.78
2018-09-27T01:17:27.071Z,85.82
2018-09-27T01:18:26.999Z,85.88
2018-09-27T01:19:27.127Z,85.78
2018-09-27T01:20:26.924Z,85.99
2018-09-27T01:29:43.676Z,87.47
2018-09-27T01:30:43.374Z,86.29
2018-09-27T01:31:43.615Z,86.33
2018-09-27T01:32:43.410Z,85.92
2018-09-27T01:39:32.985Z,85.57
2018-09-27T01:46:36.530Z,86.33
2018-09-27T01:50:17.997Z,86.02
2018-09-27T02:09:36.147Z,86.17
2018-09-27T02:21:48.579Z,85.75
2018-09-27T02:33:04.935Z,85.55
2018-09-27T02:41:05.505Z,85.96
2018-09-27T02:51:52.360Z,87.45
2018-09-27T02:52:52.469Z,87.87
2018-09-27T02:55:15.391Z,87.35
2018-09-27T03:14:48.378Z,87.59
2018-09-27T03:54:46.002Z,88.32
2018-09-27T03:55:45.919Z,88.21
2018-09-27T03:56:46.018Z,88.01
2018-09-27T03:57:45.982Z,88.11
2018-09-27T04:00:27.673Z,88.21
2018-09-27T04:01:27.656Z,88.42
2018-09-27T04:02:27.642Z,88.73
2018-09-27T04:03:27.714Z,88.42
2018-09-27T04:04:27.619Z,88.73
2018-09-27T04:05:27.608Z,89.25
2018-09-27T04:06:27.607Z,89.36
2018-09-27T04:07:27.671Z,89.36
2018-09-27T04:08:27.998Z,89.21
2018-09-27T04:09:27.566Z,89.11
2018-09-27T04:10:27.590Z,89.11
2018-09-27T04:11:27.540Z,88.79
2018-09-27T04:12:27.561Z,88.90
2018-09-27T04:13:27.528Z,88.18
2018-09-27T04:14:27.612Z,87.97
2018-09-27T04:15:27.542Z,88.69
2018-09-27T04:16:27.483Z,88.07
2018-09-27T04:17:27.471Z,88.59
2018-09-27T04:18:27.469Z,88.69
2018-09-27T04:19:27.460Z,88.07
2018-09-27T04:20:27.438Z,88.07
2018-09-27T04:21:27.430Z,88.18
2018-09-27T04:22:27.515Z,88.07
2018-09-27T04:23:27.403Z,88.28
2018-09-27T04:24:27.403Z,88.90
2018-09-27T04:25:27.380Z,88.79
2018-09-27T04:26:27.369Z,88.69
2018-09-27T04:27:27.358Z,88.69
2018-09-27T04:28:27.371Z,88.48
2018-09-27T04:29:27.346Z,88.90
2018-09-27T04:30:27.349Z,88.69
2018-09-27T04:31:27.312Z,88.39
2018-09-27T04:32:27.300Z,88.59
2018-09-27T04:33:27.359Z,88.39
2018-09-27T04:34:27.302Z,88.18
2018-09-27T04:35:27.395Z,88.18
2018-09-27T04:36:27.366Z,88.48
2018-09-27T04:37:27.247Z,87.72
2018-09-27T04:38:27.232Z,87.35
2018-09-27T04:39:27.234Z,86.93
2018-09-27T04:40:27.217Z,86.83
2018-09-27T04:41:27.228Z,87.66
2018-09-27T04:42:27.187Z,87.87
2018-09-27T04:43:27.235Z,88.39
2018-09-27T04:44:27.180Z,87.87
2018-09-27T04:45:27.155Z,88.07
2018-09-27T04:46:27.141Z,88.28
2018-09-27T04:47:27.134Z,87.76
2018-09-27T04:48:27.119Z,88.39
2018-09-27T04:49:27.229Z,88.39
2018-09-27T04:50:27.096Z,88.69
2018-09-27T04:51:27.090Z,89.42
2018-09-27T04:52:27.074Z,89.17
2018-09-27T04:53:27.061Z,88.48
2018-09-27T04:54:27.138Z,88.69
2018-09-27T04:55:27.039Z,88.28
2018-09-27T04:56:27.042Z,88.48
2018-09-27T04:57:27.020Z,88.48
2018-09-27T04:58:27.006Z,88.69
2018-09-27T04:59:27.021Z,88.55
2018-09-27T05:00:26.981Z,88.45
2018-09-27T05:01:26.971Z,88.34
2018-09-27T05:02:27.002Z,88.34
2018-09-27T05:03:26.948Z,88.55
2018-09-27T05:04:26.952Z,88.45
2018-09-27T05:05:26.930Z,88.24
2018-09-27T05:06:26.936Z,88.96
2018-09-27T05:07:26.906Z,89.03
2018-09-27T05:08:26.893Z,88.76
2018-09-27T05:09:26.950Z,89.13
2018-09-27T05:10:26.863Z,88.76
2018-09-27T05:11:26.857Z,88.71
2018-09-27T05:12:26.849Z,88.51
2018-09-27T05:13:26.835Z,88.51
2018-09-27T05:14:26.839Z,88.51
2018-09-27T05:15:26.818Z,88.61
2018-09-27T05:16:26.844Z,88.61
2018-09-27T05:17:26.791Z,88.20
2018-09-27T05:18:26.783Z,88.51
2018-09-27T05:19:26.780Z,88.30
2018-09-27T05:20:26.770Z,88.40
2018-09-27T05:21:26.778Z,88.51
2018-09-27T05:22:26.733Z,88.30
2018-09-27T05:23:26.722Z,88.30
2018-09-27T05:24:26.903Z,88.30
2018-09-27T05:25:26.706Z,88.30
2018-09-27T05:26:26.686Z,88.36
2018-09-27T05:27:26.688Z,87.95
2018-09-27T05:28:26.791Z,88.09
2018-09-27T05:29:26.666Z,88.51
2018-09-27T05:30:26.650Z,88.40
2018-09-27T05:31:26.630Z,87.99
2018-09-27T05:32:26.619Z,88.40
2018-09-27T05:33:26.663Z,88.30
2018-09-27T05:34:26.747Z,87.85
2018-09-27T05:35:26.588Z,88.06
2018-09-27T05:36:26.573Z,88.67
2018-09-27T05:37:26.562Z,88.46
2018-09-27T05:38:26.550Z,87.85
2018-09-27T05:39:26.595Z,88.06
2018-09-27T05:40:26.719Z,87.95
2018-09-27T05:41:26.517Z,88.36
2018-09-27T05:42:26.505Z,87.85
2018-09-27T05:43:26.494Z,88.26
2018-09-27T05:44:26.547Z,88.26
2018-09-27T05:45:26.495Z,87.60
2018-09-27T05:46:26.462Z,88.32
2018-09-27T05:47:26.459Z,88.22
2018-09-27T05:48:26.517Z,88.22
2018-09-27T05:49:26.438Z,88.22
2018-09-27T05:50:26.533Z,87.60
2018-09-27T05:51:26.531Z,87.70
2018-09-27T05:52:26.391Z,87.81
2018-09-27T05:53:26.443Z,87.49
2018-09-27T05:54:26.384Z,87.91
2018-09-27T05:55:26.358Z,87.18
2018-09-27T05:56:26.415Z,86.77
2018-09-27T05:57:26.367Z,86.63
2018-09-27T05:58:26.325Z,86.32
2018-09-27T05:59:26.331Z,86.52
2018-09-27T06:00:26.382Z,87.04
2018-09-27T06:01:26.290Z,87.66
2018-09-27T06:02:26.294Z,87.15
2018-09-27T06:03:26.368Z,87.35
2018-09-27T06:04:26.267Z,87.56
2018-09-27T06:05:26.360Z,86.94
2018-09-27T06:06:26.232Z,86.63
2018-09-27T06:07:26.292Z,86.11
2018-09-27T06:08:26.210Z,86.32
2018-09-27T06:09:26.216Z,86.42
2018-09-27T06:10:26.194Z,86.21
2018-09-27T06:11:26.302Z,86.21
2018-09-27T06:12:26.243Z,86.32
2018-09-27T06:13:26.156Z,86.42
2018-09-27T06:14:26.168Z,85.86
2018-09-27T06:15:26.178Z,85.80
2018-09-27T06:16:26.119Z,85.70
2018-09-27T06:17:26.108Z,85.97
2018-09-27T06:18:26.099Z,86.21
2018-09-27T06:19:26.131Z,86.18
2018-09-27T06:20:26.188Z,86.73
2018-09-27T06:21:26.103Z,86.73
2018-09-27T06:22:26.055Z,86.73
2018-09-27T06:23:26.039Z,86.73
2018-09-27T06:24:26.167Z,86.73
2018-09-27T06:25:26.046Z,86.18
2018-09-27T06:26:26.005Z,86.11
2018-09-27T06:27:26.031Z,86.42
2018-09-27T06:28:25.987Z,86.42
2018-09-27T06:29:25.971Z,86.52
2018-09-27T06:30:26.024Z,86.69
2018-09-27T06:31:25.950Z,86.42
2018-09-27T06:32:25.989Z,86.73
2018-09-27T06:33:26.027Z,87.25
2018-09-27T06:34:25.984Z,87.41
2018-09-27T06:35:25.920Z,86.63
2018-09-27T06:36:25.897Z,85.70
2018-09-27T06:37:25.928Z,85.35
2018-09-27T06:38:25.906Z,85.24
2018-09-27T06:39:25.862Z,84.87
2018-09-27T06:40:25.870Z,84.83
2018-09-27T06:41:25.947Z,85.28
2018-09-27T06:42:25.830Z,85.24
2018-09-27T06:43:25.872Z,84.56
2018-09-27T06:44:25.807Z,84.56
2018-09-27T06:45:26.017Z,85.14
2018-09-27T06:46:25.778Z,85.55
2018-09-27T06:47:25.771Z,84.73
2018-09-27T06:48:25.945Z,84.52
2018-09-27T06:49:26.423Z,85.66
2018-09-27T06:50:26.773Z,85.45
2018-09-27T06:51:25.729Z,85.55
2018-09-27T06:52:25.741Z,85.55
2018-09-27T06:53:25.701Z,85.10
2018-09-27T06:54:25.707Z,83.86
2018-09-27T06:55:25.887Z,83.39
2018-09-27T06:56:25.677Z,84.00
2018-09-27T06:57:25.665Z,84.07
2018-09-27T06:58:25.660Z,83.97
2018-09-27T06:59:25.714Z,83.97
2018-09-27T07:00:25.635Z,83.97
2018-09-27T07:01:25.619Z,83.76
2018-09-27T07:02:25.673Z,85.47
2018-09-27T07:03:25.630Z,84.34
2018-09-27T07:04:25.577Z,84.03
2018-09-27T07:05:25.593Z,84.61
2018-09-27T07:06:25.555Z,85.13
2018-09-27T07:07:25.596Z,85.50
2018-09-27T07:08:25.548Z,84.41
2018-09-27T07:09:25.506Z,84.47
2018-09-27T07:10:25.521Z,84.12
2018-09-27T07:11:25.505Z,83.91
2018-09-27T07:12:25.805Z,82.74
2018-09-27T07:13:25.498Z,83.05
2018-09-27T07:14:25.609Z,81.88
2018-09-27T07:15:25.494Z,80.85
2018-09-27T07:16:25.563Z,80.91
2018-09-27T07:17:25.428Z,79.64
2018-09-27T07:18:25.510Z,79.85
2018-09-27T07:19:25.408Z,80.12
2018-09-27T07:20:25.581Z,79.57
2018-09-27T07:21:25.383Z,78.20
2018-09-27T07:22:25.372Z,78.06
2018-09-27T07:23:25.364Z,77.00
2018-09-27T07:24:25.351Z,75.73
2018-09-27T07:25:25.354Z,75.24
2018-09-27T07:26:25.653Z,73.47
2018-09-27T07:27:25.315Z,72.86
2018-09-27T07:28:25.305Z,70.06
2018-09-27T07:29:25.294Z,70.12
2018-09-27T07:30:25.294Z,69.68
2018-09-27T07:31:25.271Z,70.20
2018-09-27T07:32:25.301Z,69.96
2018-09-27T07:33:25.248Z,70.06
2018-09-27T07:34:25.242Z,69.62
2018-09-27T07:35:25.239Z,68.97
2018-09-27T07:36:25.234Z,67.51
2018-09-27T07:37:25.703Z,67.92
2018-09-27T07:38:25.211Z,67.58
2018-09-27T07:39:25.183Z,67.79
2018-09-27T07:40:25.182Z,67.45
2018-09-27T07:41:25.158Z,66.33
2018-09-27T07:42:25.145Z,66.19
2018-09-27T07:43:25.143Z,64.05
2018-09-27T07:44:25.186Z,64.02
2018-09-27T07:45:25.125Z,64.53
2018-09-27T07:46:25.102Z,63.76
2018-09-27T07:47:25.091Z,60.19
2018-09-27T07:48:25.130Z,61.36
2018-09-27T07:49:25.068Z,59.73
2018-09-27T07:50:25.106Z,61.33
2018-09-27T07:51:25.042Z,62.58
2018-09-27T07:52:25.035Z,62.98
2018-09-27T07:53:25.125Z,63.83
2018-09-27T07:54:25.621Z,63.83
2018-09-27T07:55:25.008Z,64.26
2018-09-27T07:56:24.988Z,62.97
2018-09-27T07:57:24.973Z,63.79
2018-09-27T07:58:25.005Z,65.52
2018-09-27T07:59:24.955Z,63.86
2018-09-27T08:00:25.788Z,63.79
2018-09-27T08:01:24.928Z,65.80
2018-09-27T08:02:25.792Z,65.83
2018-09-27T08:03:24.906Z,65.52
2018-09-27T08:04:24.894Z,62.13
2018-09-27T08:05:25.701Z,60.47
2018-09-27T08:06:24.871Z,61.53
2018-09-27T08:07:24.896Z,61.71
2018-09-27T08:08:24.865Z,63.02
2018-09-27T08:09:24.869Z,61.37
2018-09-27T08:10:24.842Z,61.14
2018-09-27T08:11:24.882Z,61.04
2018-09-27T08:12:24.808Z,61.11
2018-09-27T08:13:24.802Z,60.27
2018-09-27T08:14:24.862Z,60.27
2018-09-27T08:15:24.822Z,58.80
2018-09-27T08:16:25.874Z,56.03
2018-09-27T08:17:24.818Z,56.31
2018-09-27T08:18:24.736Z,55.80
2018-09-27T08:19:25.087Z,52.41
2018-09-27T08:20:26.524Z,52.97
2018-09-27T08:21:24.793Z,51.73
2018-09-27T08:22:24.705Z,52.61
2018-09-27T08:23:25.245Z,48.73
2018-09-27T08:24:24.957Z,47.60
2018-09-27T08:25:24.682Z,45.86
2018-09-27T08:26:24.705Z,47.96
2018-09-27T08:27:24.634Z,44.93
2018-09-27T08:28:24.998Z,46.25
2018-09-27T08:29:24.781Z,44.41
2018-09-27T08:30:24.608Z,47.55
2018-09-27T08:31:24.606Z,48.84
2018-09-27T08:32:24.600Z,48.32
2018-09-27T08:33:24.568Z,44.59
2018-09-27T08:34:24.848Z,46.08
2018-09-27T08:35:24.544Z,45.75
2018-09-27T08:36:24.541Z,44.75
2018-09-27T08:37:24.524Z,42.52
2018-09-27T08:38:24.594Z,45.03
2018-09-27T08:39:24.498Z,41.01
2018-09-27T08:40:24.487Z,45.21
2018-09-27T08:41:24.490Z,41.39
2018-09-27T08:42:24.469Z,42.01
2018-09-27T08:43:24.454Z,42.92
2018-09-27T08:44:25.491Z,47.54
2018-09-27T08:45:24.757Z,46.54
2018-09-27T08:46:24.432Z,46.64
2018-09-27T08:47:24.409Z,44.60
2018-09-27T08:48:24.398Z,45.41
2018-09-27T08:49:24.382Z,47.12
2018-09-27T08:50:24.375Z,45.83
2018-09-27T08:51:24.425Z,46.23
2018-09-27T08:52:24.353Z,44.75
2018-09-27T08:53:24.344Z,44.47
2018-09-27T08:54:24.329Z,44.57
2018-09-27T08:55:24.325Z,45.57
2018-09-27T08:56:24.334Z,43.28
2018-09-27T08:57:24.298Z,44.89
2018-09-27T08:58:24.286Z,45.50
2018-09-27T08:59:24.278Z,46.66
2018-09-27T09:00:24.265Z,45.13
2018-09-27T09:01:24.273Z,44.63
2018-09-27T09:02:24.240Z,45.10
2018-09-27T09:03:24.301Z,47.42
2018-09-27T09:04:24.437Z,43.36
2018-09-27T09:05:24.822Z,42.96
2018-09-27T09:06:24.206Z,46.27
2018-09-27T09:07:24.194Z,45.67
2018-09-27T09:08:24.524Z,45.69
2018-09-27T09:09:24.303Z,47.39
2018-09-27T09:10:24.149Z,45.79
2018-09-27T09:11:24.151Z,48.30
2018-09-27T09:12:24.114Z,48.08
2018-09-27T09:13:24.170Z,41.97
2018-09-27T09:14:24.107Z,41.69
2018-09-27T09:15:24.146Z,40.30
2018-09-27T09:16:24.093Z,38.81
2018-09-27T09:17:24.075Z,37.81
2018-09-27T09:18:24.064Z,36.02
2018-09-27T09:19:24.070Z,35.21
2018-09-27T09:20:24.481Z,37.02
2018-09-27T09:21:24.039Z,37.93
2018-09-27T09:22:24.029Z,37.52
2018-09-27T09:23:24.005Z,38.83
2018-09-27T09:24:24.051Z,39.64
2018-09-27T09:25:23.983Z,39.86
2018-09-27T09:26:25.171Z,38.95
2018-09-27T09:27:23.998Z,42.19
2018-09-27T09:28:23.962Z,41.39
2018-09-27T09:29:23.949Z,42.72
2018-09-27T09:30:23.928Z,40.80
2018-09-27T09:31:23.923Z,41.02
2018-09-27T09:32:23.900Z,41.63
2018-09-27T09:33:23.948Z,42.54
2018-09-27T09:34:23.892Z,38.00
2018-09-27T09:35:23.915Z,36.10
2018-09-27T09:36:23.913Z,37.71
2018-09-27T09:37:24.248Z,37.01
2018-09-27T09:38:23.844Z,34.99
2018-09-27T09:39:23.829Z,37.92
2018-09-27T09:40:23.819Z,38.93
2018-09-27T09:41:23.815Z,38.22
2018-09-27T09:42:23.795Z,40.03
2018-09-27T09:43:24.079Z,37.21
2018-09-27T09:44:23.774Z,38.62
2018-09-27T09:45:23.768Z,41.14
2018-09-27T09:46:24.027Z,36.40
2018-09-27T09:47:23.725Z,40.34
2018-09-27T09:48:23.724Z,42.46
2018-09-27T09:49:23.831Z,41.65
2018-09-27T09:50:23.888Z,43.37
2018-09-27T09:51:23.703Z,43.48
2018-09-27T09:52:23.676Z,42.66
2018-09-27T09:53:23.672Z,41.35
2018-09-27T09:54:23.656Z,41.16
2018-09-27T09:55:23.646Z,39.43
2018-09-27T09:56:23.642Z,38.30
2018-09-27T09:57:23.625Z,38.40
2018-09-27T09:58:23.611Z,37.19
2018-09-27T09:59:23.600Z,36.98
2018-09-27T10:00:23.589Z,36.87
2018-09-27T10:01:23.586Z,38.28
2018-09-27T10:02:23.610Z,38.89
2018-09-27T10:03:23.552Z,39.70
2018-09-27T10:04:23.540Z,40.20
2018-09-27T10:05:23.530Z,36.98
2018-09-27T10:06:23.537Z,37.36
2018-09-27T10:07:23.509Z,37.66
2018-09-27T10:08:23.495Z,37.96
2018-09-27T10:09:23.485Z,37.76
2018-09-27T10:10:23.472Z,39.50
2018-09-27T10:11:23.472Z,40.20
2018-09-27T10:12:23.445Z,39.19
2018-09-27T10:13:23.440Z,38.18
2018-09-27T10:14:23.423Z,38.28
2018-09-27T10:15:23.411Z,37.66
2018-09-27T10:16:23.410Z,38.07
2018-09-27T10:17:23.393Z,38.47
2018-09-27T10:18:23.379Z,37.96
2018-09-27T10:19:23.366Z,38.67
2018-09-27T10:20:23.356Z,39.17
2018-09-27T10:21:23.670Z,40.28
2018-09-27T10:22:23.333Z,40.89
2018-09-27T10:23:23.323Z,38.97
2018-09-27T10:24:23.313Z,38.87
2018-09-27T10:25:23.295Z,38.57
2018-09-27T10:26:23.289Z,41.69
2018-09-27T10:27:23.284Z,42.19
2018-09-27T10:28:23.261Z,43.79
2018-09-27T10:29:23.250Z,42.70
2018-09-27T10:30:23.239Z,42.70
2018-09-27T10:31:23.264Z,42.47
2018-09-27T10:32:23.523Z,41.27
2018-09-27T10:33:23.205Z,41.05
2018-09-27T10:34:23.199Z,42.24
2018-09-27T10:35:23.184Z,42.61
2018-09-27T10:36:23.176Z,41.71
2018-09-27T10:37:23.176Z,42.92
2018-09-27T10:38:23.148Z,46.03
2018-09-27T10:39:23.148Z,46.61
2018-09-27T10:40:23.126Z,48.65
2018-09-27T10:41:23.119Z,48.14
2018-09-27T10:42:23.121Z,49.45
2018-09-27T10:43:23.101Z,48.85
2018-09-27T10:44:23.081Z,50.56
2018-09-27T10:45:23.387Z,50.15
2018-09-27T10:46:23.061Z,50.48
2018-09-27T10:47:23.061Z,51.29
2018-09-27T10:48:23.044Z,51.29
2018-09-27T10:49:23.026Z,51.09
2018-09-27T10:50:23.015Z,52.62
2018-09-27T10:51:23.103Z,53.63
2018-09-27T10:52:23.004Z,55.16
2018-09-27T10:53:22.983Z,54.75
2018-09-27T10:54:22.969Z,52.92
2018-09-27T10:55:22.961Z,53.63
2018-09-27T10:56:22.950Z,54.13
2018-09-27T10:57:22.957Z,54.13
2018-09-27T10:58:23.499Z,53.63
2018-09-27T10:59:22.920Z,53.72
2018-09-27T11:00:22.903Z,54.80
2018-09-27T11:01:22.891Z,54.50
2018-09-27T11:02:22.888Z,54.91
2018-09-27T11:03:22.877Z,55.51
2018-09-27T11:04:22.882Z,55.41
2018-09-27T11:05:23.014Z,55.21
2018-09-27T11:06:22.838Z,51.49
2018-09-27T11:07:22.871Z,52.69
2018-09-27T11:08:22.854Z,55.71
2018-09-27T11:09:22.804Z,55.18
2018-09-27T11:10:22.801Z,53.47
2018-09-27T11:11:22.840Z,53.27
2018-09-27T11:12:22.789Z,54.17
2018-09-27T11:13:22.895Z,46.64
2018-09-27T11:14:22.760Z,47.92
2018-09-27T11:15:22.762Z,47.72
2018-09-27T11:16:22.740Z,46.89
2018-09-27T11:17:22.722Z,47.50
2018-09-27T11:18:22.711Z,44.76
2018-09-27T11:19:22.770Z,45.65
2018-09-27T11:20:22.729Z,45.84
2018-09-27T11:21:22.653Z,44.44
2018-09-27T11:22:22.711Z,42.83
2018-09-27T11:23:22.663Z,44.14
2018-09-27T11:24:22.641Z,44.95
2018-09-27T11:25:22.627Z,45.75
2018-09-27T11:26:22.610Z,48.46
2018-09-27T11:27:22.680Z,50.76
2018-09-27T11:28:22.603Z,50.06
2018-09-27T11:29:22.588Z,50.89
2018-09-27T11:30:22.589Z,51.19
2018-09-27T11:31:22.639Z,53.00
2018-09-27T11:32:22.779Z,51.59
2018-09-27T11:33:22.528Z,52.42
2018-09-27T11:34:22.528Z,52.82
2018-09-27T11:35:22.523Z,51.61
2018-09-27T11:36:22.548Z,53.62
2018-09-27T11:37:22.517Z,53.42
2018-09-27T11:38:22.483Z,46.80
2018-09-27T11:39:22.480Z,47.25
2018-09-27T11:40:22.469Z,51.37
2018-09-27T11:41:22.454Z,50.66
2018-09-27T11:42:22.614Z,47.75
2018-09-27T11:43:22.414Z,51.87
2018-09-27T11:44:22.411Z,53.07
2018-09-27T11:45:22.396Z,49.56
2018-09-27T11:46:22.408Z,45.84
2018-09-27T11:47:22.410Z,46.55
2018-09-27T11:48:22.373Z,51.37
2018-09-27T11:49:22.436Z,48.96
2018-09-27T11:50:22.467Z,50.36
2018-09-27T11:51:22.340Z,51.06
2018-09-27T11:52:22.528Z,50.89
2018-09-27T11:53:22.310Z,44.56
2018-09-27T11:54:22.300Z,47.97
2018-09-27T11:55:22.299Z,45.97
2018-09-27T11:56:22.452Z,41.83
2018-09-27T11:57:22.286Z,40.73
2018-09-27T11:58:22.255Z,42.74
2018-09-27T11:59:22.244Z,40.33
2018-09-27T12:00:22.356Z,38.40
2018-09-27T12:01:22.257Z,39.79
2018-09-27T12:02:22.313Z,40.27
2018-09-27T12:03:22.202Z,40.25
2018-09-27T12:04:22.192Z,38.65
2018-09-27T12:05:22.196Z,36.75
2018-09-27T12:06:22.165Z,39.35
2018-09-27T12:07:22.254Z,43.16
2018-09-27T12:08:22.143Z,39.65
2018-09-27T12:09:22.132Z,38.55
2018-09-27T12:10:22.122Z,38.33
2018-09-27T12:11:22.115Z,37.21
2018-09-27T12:12:22.125Z,38.63
2018-09-27T12:13:22.169Z,38.42
2018-09-27T12:14:22.091Z,42.32
2018-09-27T12:15:22.099Z,43.04
2018-09-27T12:16:22.055Z,43.74
2018-09-27T12:17:22.064Z,42.76
2018-09-27T12:18:22.042Z,41.15
2018-09-27T12:19:22.017Z,44.48
2018-09-27T12:20:22.010Z,42.69
2018-09-27T12:21:22.014Z,47.00
2018-09-27T12:22:22.008Z,45.83
2018-09-27T12:23:21.971Z,44.42
2018-09-27T12:24:21.966Z,44.02
2018-09-27T12:25:21.968Z,40.13
2018-09-27T12:26:21.948Z,36.72
2018-09-27T12:27:21.972Z,38.68
2018-09-27T12:28:21.914Z,37.87
2018-09-27T12:29:22.047Z,38.57
2018-09-27T12:30:21.906Z,36.35
2018-09-27T12:31:21.934Z,37.43
2018-09-27T12:32:21.881Z,36.61
2018-09-27T12:33:21.889Z,37.90
2018-09-27T12:34:21.942Z,33.20
2018-09-27T12:35:21.847Z,35.89
2018-09-27T12:36:21.825Z,37.18
2018-09-27T12:37:21.814Z,36.28
2018-09-27T12:38:21.854Z,31.48
2018-09-27T12:39:21.789Z,32.08
2018-09-27T12:40:21.867Z,32.88
2018-09-27T12:41:21.775Z,37.88
2018-09-27T12:42:21.807Z,38.68
2018-09-27T12:43:21.776Z,39.89
2018-09-27T12:44:21.728Z,30.21
2018-09-27T12:45:21.754Z,31.90
2018-09-27T12:46:21.787Z,30.99
2018-09-27T12:47:21.699Z,30.68
2018-09-27T12:48:21.794Z,32.78
2018-09-27T12:49:21.673Z,32.79
2018-09-27T12:50:21.666Z,32.50
2018-09-27T12:51:21.835Z,30.49
2018-09-27T12:52:21.891Z,31.79
2018-09-27T12:53:21.679Z,30.49
2018-09-27T12:54:21.627Z,30.29
2018-09-27T12:55:21.616Z,31.10
2018-09-27T12:56:21.597Z,29.49
2018-09-27T12:57:21.588Z,32.29
2018-09-27T12:58:21.591Z,31.79
2018-09-27T12:59:21.569Z,30.19
2018-09-27T13:00:21.552Z,32.20
2018-09-27T13:01:21.537Z,30.49
2018-09-27T13:02:21.611Z,33.09
2018-09-27T13:03:21.543Z,37.19
2018-09-27T13:04:21.510Z,32.91
2018-09-27T13:05:21.527Z,35.83
2018-09-27T13:06:21.469Z,33.11
2018-09-27T13:07:21.481Z,29.62
2018-09-27T13:08:21.507Z,31.11
2018-09-27T13:09:21.983Z,29.51
2018-09-27T13:10:21.521Z,31.29
2018-09-27T13:11:21.424Z,33.21
2018-09-27T13:12:21.474Z,31.21
2018-09-27T13:13:21.578Z,33.03
2018-09-27T13:14:21.391Z,30.22
2018-09-27T13:15:21.386Z,29.21
2018-09-27T13:16:21.384Z,28.21
2018-09-27T13:17:21.496Z,28.11
2018-09-27T13:18:21.437Z,28.89
2018-09-27T13:19:21.638Z,29.90
2018-09-27T13:20:21.366Z,31.71
2018-09-27T13:21:21.647Z,34.11
2018-09-27T13:22:21.303Z,29.01
2018-09-27T13:23:21.310Z,31.23
2018-09-27T13:24:21.402Z,28.02
2018-09-27T13:25:21.270Z,28.22
2018-09-27T13:26:21.260Z,31.02
2018-09-27T13:27:21.260Z,29.24
2018-09-27T13:28:21.265Z,28.72
2018-09-27T13:29:21.382Z,26.22
2018-09-27T13:30:21.210Z,25.52
2018-09-27T13:31:21.326Z,29.43
2018-09-27T13:32:21.215Z,27.62
2018-09-27T13:33:21.196Z,31.32
2018-09-27T13:34:21.331Z,33.14
2018-09-27T13:35:21.158Z,33.06
2018-09-27T13:36:21.345Z,33.36
2018-09-27T13:37:21.139Z,28.96
2018-09-27T13:38:21.148Z,28.85
2018-09-27T13:39:21.166Z,28.65
2018-09-27T13:40:21.106Z,26.33
2018-09-27T13:41:21.095Z,28.22
2018-09-27T13:42:21.094Z,29.32
2018-09-27T13:43:21.160Z,34.94
2018-09-27T13:44:21.062Z,34.74
2018-09-27T13:45:21.312Z,30.65
2018-09-27T13:46:21.055Z,30.26
2018-09-27T13:47:21.027Z,36.58
2018-09-27T13:48:21.036Z,35.98
2018-09-27T13:49:21.013Z,39.31
2018-09-27T13:50:20.992Z,36.80
2018-09-27T13:51:21.216Z,34.11
2018-09-27T13:52:21.239Z,34.31
2018-09-27T13:53:21.417Z,36.63
2018-09-27T13:54:21.216Z,34.33
2018-09-27T13:55:20.937Z,37.65
2018-09-27T13:56:20.921Z,36.65
2018-09-27T13:57:20.950Z,35.77
2018-09-27T13:58:21.471Z,34.36
2018-09-27T13:59:21.279Z,39.69
2018-09-27T14:00:21.091Z,40.81
2018-09-27T14:01:20.854Z,38.70
2018-09-27T14:02:21.438Z,43.02
2018-09-27T14:03:20.864Z,38.21
2018-09-27T14:04:20.861Z,38.81
2018-09-27T14:05:20.878Z,35.90
2018-09-27T14:06:20.819Z,40.83
2018-09-27T14:07:20.843Z,43.16
2018-09-27T14:08:20.823Z,48.72
2018-09-27T14:09:20.784Z,39.86
2018-09-27T14:10:20.780Z,43.10
2018-09-27T14:11:20.749Z,46.02
2018-09-27T14:12:20.742Z,46.34
2018-09-27T14:13:20.847Z,45.46
2018-09-27T14:14:20.711Z,49.39
2018-09-27T14:15:20.708Z,46.29
2018-09-27T14:16:20.692Z,51.43
2018-09-27T14:17:20.718Z,43.26
2018-09-27T14:18:20.719Z,48.10
2018-09-27T14:19:20.668Z,40.76
2018-09-27T14:20:20.648Z,46.19
2018-09-27T14:21:20.631Z,48.81
2018-09-27T14:22:20.624Z,49.33
2018-09-27T14:23:20.736Z,46.81
2018-09-27T14:24:20.601Z,45.90
2018-09-27T14:25:20.576Z,46.71
2018-09-27T14:26:20.882Z,44.90
2018-09-27T14:27:20.588Z,51.56
2018-09-27T14:28:20.576Z,52.76
2018-09-27T14:29:20.549Z,51.66
2018-09-27T14:30:20.535Z,51.89
2018-09-27T14:31:20.507Z,43.28
2018-09-27T14:32:20.997Z,46.94
2018-09-27T14:33:20.524Z,47.02
2018-09-27T14:34:20.540Z,44.39
2018-09-27T14:35:20.608Z,44.39
2018-09-27T14:36:20.861Z,47.02
2018-09-27T14:37:20.455Z,48.13
2018-09-27T14:38:20.571Z,43.38
2018-09-27T14:39:20.746Z,44.90
2018-09-27T14:40:21.052Z,47.92
2018-09-27T14:41:20.552Z,47.42
2018-09-27T14:42:20.402Z,44.79
2018-09-27T14:43:20.600Z,47.42
2018-09-27T14:44:20.402Z,47.62
2018-09-27T14:45:20.851Z,51.66
2018-09-27T14:46:20.356Z,49.26
2018-09-27T14:47:20.865Z,50.47
2018-09-27T14:48:20.569Z,46.03
2018-09-27T14:49:20.383Z,48.15
2018-09-27T14:50:20.906Z,50.59
2018-09-27T14:51:20.482Z,52.51
2018-09-27T14:52:20.285Z,49.99
2018-09-27T14:53:20.270Z,53.85
2018-09-27T14:54:20.287Z,52.11
2018-09-27T14:55:20.247Z,48.98
2018-09-27T14:56:20.271Z,48.80
2018-09-27T14:57:20.224Z,49.48
2018-09-27T14:58:20.221Z,49.51
2018-09-27T14:59:20.419Z,50.72
2018-09-27T15:00:20.194Z,43.75
2018-09-27T15:01:20.180Z,45.47
2018-09-27T15:02:20.296Z,49.51
2018-09-27T15:03:20.166Z,50.92
2018-09-27T15:04:20.189Z,51.71
2018-09-27T15:05:20.142Z,50.59
2018-09-27T15:06:20.126Z,51.73
2018-09-27T15:07:20.116Z,53.55
2018-09-27T15:08:20.474Z,54.58
2018-09-27T15:09:20.181Z,53.17
2018-09-27T15:10:20.173Z,54.49
2018-09-27T15:11:20.071Z,55.09
2018-09-27T15:12:20.064Z,53.90
2018-09-27T15:13:20.151Z,53.90
2018-09-27T15:14:20.065Z,53.50
2018-09-27T15:15:20.029Z,51.48
2018-09-27T15:16:20.045Z,51.98
2018-09-27T15:17:20.005Z,51.28
2018-09-27T15:18:19.996Z,49.45
2018-09-27T15:19:20.005Z,55.73
2018-09-27T15:20:19.974Z,58.07
2018-09-27T15:21:19.959Z,56.89
2018-09-27T15:22:19.944Z,56.89
2018-09-27T15:23:19.981Z,57.70
2018-09-27T15:24:19.983Z,56.89
2018-09-27T15:25:19.911Z,58.13
2018-09-27T15:26:19.911Z,58.13
2018-09-27T15:27:19.894Z,59.25
2018-09-27T15:28:19.885Z,58.74
2018-09-27T15:29:19.910Z,56.31
2018-09-27T15:30:19.861Z,59.07
2018-09-27T15:31:19.860Z,58.06
2018-09-27T15:32:19.841Z,57.53
2018-09-27T15:33:19.821Z,55.52
2018-09-27T15:34:19.837Z,54.61
2018-09-27T15:35:19.810Z,55.93
2018-09-27T15:36:19.838Z,59.78
2018-09-27T15:37:19.792Z,59.58
2018-09-27T15:38:19.764Z,59.68
2018-09-27T15:39:19.778Z,58.90
2018-09-27T15:40:19.751Z,58.76
2018-09-27T15:41:19.743Z,60.21
2018-09-27T15:42:19.758Z,57.78
2018-09-27T15:43:19.714Z,56.05
2018-09-27T15:44:19.722Z,58.69
2018-09-27T15:45:19.695Z,60.93
2018-09-27T15:46:19.679Z,63.15
2018-09-27T15:47:19.673Z,63.29
2018-09-27T15:48:19.853Z,59.63
2018-09-27T15:49:19.914Z,59.74
2018-09-27T15:50:19.631Z,61.46
2018-09-27T15:51:19.651Z,63.18
2018-09-27T15:52:19.609Z,60.98
2018-09-27T15:53:19.597Z,62.07
2018-09-27T15:54:19.597Z,62.71
2018-09-27T15:55:19.574Z,63.52
2018-09-27T15:56:19.756Z,60.37
2018-09-27T15:57:19.552Z,60.78
2018-09-27T15:58:19.540Z,62.40
2018-09-27T15:59:19.544Z,62.30
2018-09-27T16:00:19.548Z,61.69
2018-09-27T16:01:19.506Z,63.01
2018-09-27T16:02:19.503Z,61.49
2018-09-27T16:03:19.484Z,61.69
2018-09-27T16:04:19.484Z,62.20
2018-09-27T16:05:19.462Z,58.95
2018-09-27T16:06:19.472Z,58.17
2018-09-27T16:07:19.439Z,60.10
2018-09-27T16:08:19.427Z,61.72
2018-09-27T16:09:19.436Z,62.02
2018-09-27T16:10:19.405Z,62.43
2018-09-27T16:11:19.394Z,61.65
2018-09-27T16:12:19.455Z,59.31
2018-09-27T16:13:19.370Z,60.83
2018-09-27T16:14:19.372Z,62.97
2018-09-27T16:15:19.349Z,63.07
2018-09-27T16:16:19.337Z,63.98
2018-09-27T16:17:19.326Z,65.10
2018-09-27T16:18:19.315Z,63.88
2018-09-27T16:19:19.315Z,63.07
2018-09-27T16:20:19.289Z,62.79
2018-09-27T16:21:19.267Z,65.13
2018-09-27T16:22:19.291Z,66.35
2018-09-27T16:23:19.258Z,66.76
2018-09-27T16:24:19.254Z,67.67
2018-09-27T16:25:19.231Z,67.36